sensor_id;sensor_type;location;lat;lon;timestamp;temperature;humidity
64634;DHT22;51043;52.406;9.690;2022-09-16T00:00:32;11.40;99.90
64634;DHT22;51043;52.406;9.690;2022-09-16T00:02:59;11.40;99.90
64634;DHT22;51043;52.406;9.690;2022-09-16T00:05:26;11.40;99.90
64634;DHT22;51043;52.406;9.690;2022-09-16T00:07:53;11.40;99.90
64634;DHT22;51043;52.406;9.690;2022-09-16T00:10:22;11.40;99.90
64634;DHT22;51043;52.406;9.690;2022-09-16T00:12:49;11.40;99.90
64634;DHT22;51043;52.406;9.690;2022-09-16T00:15:17;11.50;99.90
64634;DHT22;51043;52.406;9.690;2022-09-16T00:17:45;11.50;99.90
64634;DHT22;51043;52.406;9.690;2022-09-16T00:20:12;11.50;99.90
64634;DHT22;51043;52.406;9.690;2022-09-16T00:22:39;11.50;99.90
64634;DHT22;51043;52.406;9.690;2022-09-16T00:25:06;11.50;99.90
64634;DHT22;51043;52.406;9.690;2022-09-16T00:27:33;11.40;99.90
64634;DHT22;51043;52.406;9.690;2022-09-16T00:30:00;11.40;99.90
64634;DHT22;51043;52.406;9.690;2022-09-16T00:32:27;11.40;99.90
64634;DHT22;51043;52.406;9.690;2022-09-16T00:34:54;11.40;99.90
64634;DHT22;51043;52.406;9.690;2022-09-16T00:37:21;11.50;99.90
64634;DHT22;51043;52.406;9.690;2022-09-16T00:39:49;11.60;99.90
64634;DHT22;51043;52.406;9.690;2022-09-16T00:42:17;11.60;99.90
64634;DHT22;51043;52.406;9.690;2022-09-16T00:44:54;11.60;99.90
64634;DHT22;51043;52.406;9.690;2022-09-16T00:47:40;11.60;99.90
64634;DHT22;51043;52.406;9.690;2022-09-16T00:50:40;11.60;99.90
64634;DHT22;51043;52.406;9.690;2022-09-16T00:53:15;11.50;99.90
64634;DHT22;51043;52.406;9.690;2022-09-16T00:55:44;11.50;99.90
64634;DHT22;51043;52.406;9.690;2022-09-16T00:58:46;11.50;99.90
64634;DHT22;51043;52.406;9.690;2022-09-16T01:01:14;11.50;99.90
64634;DHT22;51043;52.406;9.690;2022-09-16T01:03:51;11.50;99.90
64634;DHT22;51043;52.406;9.690;2022-09-16T01:06:21;11.40;99.90
64634;DHT22;51043;52.406;9.690;2022-09-16T01:08:49;11.50;99.90
64634;DHT22;51043;52.406;9.690;2022-09-16T01:11:17;11.50;99.90
64634;DHT22;51043;52.406;9.690;2022-09-16T01:13:45;11.50;99.90
64634;DHT22;51043;52.406;9.690;2022-09-16T01:16:33;11.50;99.90
64634;DHT22;51043;52.406;9.690;2022-09-16T01:21:53;11.70;99.90
64634;DHT22;51043;52.406;9.690;2022-09-16T01:24:43;11.70;99.90
64634;DHT22;51043;52.406;9.690;2022-09-16T01:30:46;11.80;99.90
64634;DHT22;51043;52.406;9.690;2022-09-16T01:47:26;12.00;99.90
64634;DHT22;51043;52.406;9.690;2022-09-16T01:50:20;12.00;99.90
64634;DHT22;51043;52.406;9.690;2022-09-16T01:52:57;11.90;99.90
64634;DHT22;51043;52.406;9.690;2022-09-16T01:56:20;11.90;99.90
64634;DHT22;51043;52.406;9.690;2022-09-16T01:58:32;11.90;99.90
64634;DHT22;51043;52.406;9.690;2022-09-16T02:01:05;11.90;99.90
64634;DHT22;51043;52.406;9.690;2022-09-16T02:03:35;11.90;99.90
64634;DHT22;51043;52.406;9.690;2022-09-16T02:06:17;12.00;99.90
64634;DHT22;51043;52.406;9.690;2022-09-16T02:08:55;11.90;99.90
64634;DHT22;51043;52.406;9.690;2022-09-16T02:11:24;11.90;99.90
64634;DHT22;51043;52.406;9.690;2022-09-16T02:16:27;12.00;99.90
64634;DHT22;51043;52.406;9.690;2022-09-16T02:19:00;12.00;99.90
64634;DHT22;51043;52.406;9.690;2022-09-16T02:21:31;11.90;99.90
64634;DHT22;51043;52.406;9.690;2022-09-16T02:24:02;12.00;99.90
64634;DHT22;51043;52.406;9.690;2022-09-16T02:26:36;12.00;99.90
64634;DHT22;51043;52.406;9.690;2022-09-16T02:29:10;12.00;99.90
64634;DHT22;51043;52.406;9.690;2022-09-16T02:31:42;12.00;99.90
64634;DHT22;51043;52.406;9.690;2022-09-16T02:34:17;12.00;99.90
64634;DHT22;51043;52.406;9.690;2022-09-16T02:36:49;12.00;99.90
64634;DHT22;51043;52.406;9.690;2022-09-16T02:39:22;12.00;99.90
64634;DHT22;51043;52.406;9.690;2022-09-16T02:41:51;12.00;99.90
64634;DHT22;51043;52.406;9.690;2022-09-16T02:44:18;12.00;99.90
64634;DHT22;51043;52.406;9.690;2022-09-16T02:46:56;12.00;99.90
64634;DHT22;51043;52.406;9.690;2022-09-16T02:49:41;11.90;99.90
64634;DHT22;51043;52.406;9.690;2022-09-16T02:57:49;11.90;99.90
64634;DHT22;51043;52.406;9.690;2022-09-16T03:00:16;11.90;99.90
64634;DHT22;51043;52.406;9.690;2022-09-16T03:02:43;11.90;99.90
64634;DHT22;51043;52.406;9.690;2022-09-16T03:05:10;11.80;99.90
64634;DHT22;51043;52.406;9.690;2022-09-16T03:07:38;11.70;99.90
64634;DHT22;51043;52.406;9.690;2022-09-16T03:10:09;11.70;99.90
64634;DHT22;51043;52.406;9.690;2022-09-16T03:26:56;11.70;99.90
64634;DHT22;51043;52.406;9.690;2022-09-16T03:29:52;11.70;99.90
64634;DHT22;51043;52.406;9.690;2022-09-16T03:32:23;11.60;99.90
64634;DHT22;51043;52.406;9.690;2022-09-16T03:35:00;11.60;99.90
64634;DHT22;51043;52.406;9.690;2022-09-16T03:37:32;11.50;99.90
64634;DHT22;51043;52.406;9.690;2022-09-16T03:40:09;11.60;99.90
64634;DHT22;51043;52.406;9.690;2022-09-16T03:42:39;11.50;99.90
64634;DHT22;51043;52.406;9.690;2022-09-16T03:45:07;11.50;99.90
64634;DHT22;51043;52.406;9.690;2022-09-16T03:47:35;11.50;99.90
64634;DHT22;51043;52.406;9.690;2022-09-16T03:50:03;11.50;99.90
64634;DHT22;51043;52.406;9.690;2022-09-16T03:52:30;11.50;99.90
64634;DHT22;51043;52.406;9.690;2022-09-16T03:54:57;11.60;99.90
64634;DHT22;51043;52.406;9.690;2022-09-16T03:57:24;11.60;99.90
64634;DHT22;51043;52.406;9.690;2022-09-16T03:59:53;11.70;99.90
64634;DHT22;51043;52.406;9.690;2022-09-16T04:02:20;11.70;99.90
64634;DHT22;51043;52.406;9.690;2022-09-16T04:04:48;11.70;99.90
64634;DHT22;51043;52.406;9.690;2022-09-16T04:07:15;11.70;99.90
64634;DHT22;51043;52.406;9.690;2022-09-16T04:09:42;11.70;99.90
64634;DHT22;51043;52.406;9.690;2022-09-16T04:12:09;11.70;99.90
64634;DHT22;51043;52.406;9.690;2022-09-16T04:14:36;11.80;99.90
64634;DHT22;51043;52.406;9.690;2022-09-16T04:17:03;11.70;99.90
64634;DHT22;51043;52.406;9.690;2022-09-16T04:19:30;11.80;99.90
64634;DHT22;51043;52.406;9.690;2022-09-16T04:21:57;11.80;99.90
64634;DHT22;51043;52.406;9.690;2022-09-16T04:24:24;11.70;99.90
64634;DHT22;51043;52.406;9.690;2022-09-16T04:26:51;11.70;99.90
64634;DHT22;51043;52.406;9.690;2022-09-16T04:29:19;11.70;99.90
64634;DHT22;51043;52.406;9.690;2022-09-16T04:31:45;11.70;99.90
64634;DHT22;51043;52.406;9.690;2022-09-16T04:34:12;11.70;99.90
64634;DHT22;51043;52.406;9.690;2022-09-16T04:36:39;11.70;99.90
64634;DHT22;51043;52.406;9.690;2022-09-16T04:39:06;11.80;99.90
64634;DHT22;51043;52.406;9.690;2022-09-16T04:41:34;11.80;99.90
64634;DHT22;51043;52.406;9.690;2022-09-16T04:44:01;11.80;99.90
64634;DHT22;51043;52.406;9.690;2022-09-16T04:46:30;11.80;99.90
64634;DHT22;51043;52.406;9.690;2022-09-16T04:48:58;11.80;99.90
64634;DHT22;51043;52.406;9.690;2022-09-16T04:51:27;11.80;99.90
64634;DHT22;51043;52.406;9.690;2022-09-16T04:53:54;11.80;99.90
64634;DHT22;51043;52.406;9.690;2022-09-16T04:56:24;11.80;99.90
64634;DHT22;51043;52.406;9.690;2022-09-16T04:58:54;11.80;99.90
64634;DHT22;51043;52.406;9.690;2022-09-16T05:01:23;11.80;99.90
64634;DHT22;51043;52.406;9.690;2022-09-16T05:03:52;11.70;99.90
64634;DHT22;51043;52.406;9.690;2022-09-16T05:06:22;11.70;99.90
64634;DHT22;51043;52.406;9.690;2022-09-16T05:08:51;11.70;99.90
64634;DHT22;51043;52.406;9.690;2022-09-16T05:11:20;11.70;99.90
64634;DHT22;51043;52.406;9.690;2022-09-16T05:13:47;11.70;99.90
64634;DHT22;51043;52.406;9.690;2022-09-16T05:16:16;11.70;99.90
64634;DHT22;51043;52.406;9.690;2022-09-16T05:18:45;11.70;99.90
64634;DHT22;51043;52.406;9.690;2022-09-16T05:21:16;11.70;99.90
64634;DHT22;51043;52.406;9.690;2022-09-16T05:23:44;11.80;99.90
64634;DHT22;51043;52.406;9.690;2022-09-16T05:26:19;11.80;99.90
64634;DHT22;51043;52.406;9.690;2022-09-16T05:28:46;11.80;99.90
64634;DHT22;51043;52.406;9.690;2022-09-16T05:33:56;11.70;99.90
64634;DHT22;51043;52.406;9.690;2022-09-16T05:36:25;11.90;99.90
64634;DHT22;51043;52.406;9.690;2022-09-16T05:38:52;11.90;99.90
64634;DHT22;51043;52.406;9.690;2022-09-16T05:41:37;11.90;99.90
64634;DHT22;51043;52.406;9.690;2022-09-16T05:44:04;12.00;99.90
64634;DHT22;51043;52.406;9.690;2022-09-16T05:46:32;12.10;99.90
64634;DHT22;51043;52.406;9.690;2022-09-16T05:48:59;12.10;99.90
64634;DHT22;51043;52.406;9.690;2022-09-16T05:51:27;12.10;99.90
64634;DHT22;51043;52.406;9.690;2022-09-16T05:53:55;12.10;99.90
64634;DHT22;51043;52.406;9.690;2022-09-16T05:56:23;12.10;99.90
64634;DHT22;51043;52.406;9.690;2022-09-16T05:58:52;12.10;99.90
64634;DHT22;51043;52.406;9.690;2022-09-16T06:01:26;12.10;99.90
64634;DHT22;51043;52.406;9.690;2022-09-16T06:03:54;12.10;99.90
64634;DHT22;51043;52.406;9.690;2022-09-16T06:06:36;12.20;99.90
64634;DHT22;51043;52.406;9.690;2022-09-16T06:09:09;12.30;99.90
64634;DHT22;51043;52.406;9.690;2022-09-16T06:11:39;12.50;99.90
64634;DHT22;51043;52.406;9.690;2022-09-16T06:14:07;12.60;99.90
64634;DHT22;51043;52.406;9.690;2022-09-16T06:16:34;12.90;99.90
64634;DHT22;51043;52.406;9.690;2022-09-16T06:19:05;12.90;99.90
64634;DHT22;51043;52.406;9.690;2022-09-16T06:21:32;12.90;99.90
64634;DHT22;51043;52.406;9.690;2022-09-16T06:24:00;12.80;99.90
64634;DHT22;51043;52.406;9.690;2022-09-16T06:26:27;12.60;99.90
64634;DHT22;51043;52.406;9.690;2022-09-16T06:28:54;12.40;99.90
64634;DHT22;51043;52.406;9.690;2022-09-16T06:31:27;12.40;99.90
64634;DHT22;51043;52.406;9.690;2022-09-16T06:33:54;12.40;99.90
64634;DHT22;51043;52.406;9.690;2022-09-16T06:36:32;12.40;99.90
64634;DHT22;51043;52.406;9.690;2022-09-16T06:38:59;12.50;99.90
64634;DHT22;51043;52.406;9.690;2022-09-16T06:41:26;12.70;99.90
64634;DHT22;51043;52.406;9.690;2022-09-16T06:43:53;13.00;99.90
64634;DHT22;51043;52.406;9.690;2022-09-16T06:46:22;13.00;99.90
64634;DHT22;51043;52.406;9.690;2022-09-16T06:48:51;13.00;99.90
64634;DHT22;51043;52.406;9.690;2022-09-16T06:51:21;13.00;99.90
64634;DHT22;51043;52.406;9.690;2022-09-16T06:53:49;13.10;99.90
64634;DHT22;51043;52.406;9.690;2022-09-16T06:56:19;13.30;99.90
64634;DHT22;51043;52.406;9.690;2022-09-16T06:58:49;13.60;99.90
64634;DHT22;51043;52.406;9.690;2022-09-16T07:01:23;14.10;99.90
64634;DHT22;51043;52.406;9.690;2022-09-16T07:03:52;14.80;99.90
64634;DHT22;51043;52.406;9.690;2022-09-16T07:06:21;15.50;99.90
64634;DHT22;51043;52.406;9.690;2022-09-16T07:08:55;15.70;99.90
64634;DHT22;51043;52.406;9.690;2022-09-16T07:11:22;15.80;99.90
64634;DHT22;51043;52.406;9.690;2022-09-16T07:13:50;16.30;99.90
64634;DHT22;51043;52.406;9.690;2022-09-16T07:16:22;16.80;99.90
64634;DHT22;51043;52.406;9.690;2022-09-16T07:18:57;17.00;99.90
64634;DHT22;51043;52.406;9.690;2022-09-16T07:21:27;17.40;99.90
64634;DHT22;51043;52.406;9.690;2022-09-16T07:23:58;17.80;99.90
64634;DHT22;51043;52.406;9.690;2022-09-16T07:26:27;18.10;99.90
64634;DHT22;51043;52.406;9.690;2022-09-16T07:28:57;18.50;99.90
64634;DHT22;51043;52.406;9.690;2022-09-16T07:31:26;18.70;99.90
64634;DHT22;51043;52.406;9.690;2022-09-16T07:33:55;18.60;99.90
64634;DHT22;51043;52.406;9.690;2022-09-16T07:36:27;19.10;99.90
64634;DHT22;51043;52.406;9.690;2022-09-16T07:38:55;19.20;99.90
64634;DHT22;51043;52.406;9.690;2022-09-16T07:41:28;18.50;99.90
64634;DHT22;51043;52.406;9.690;2022-09-16T07:43:57;18.70;99.90
64634;DHT22;51043;52.406;9.690;2022-09-16T07:46:30;19.00;99.90
64634;DHT22;51043;52.406;9.690;2022-09-16T07:48:58;18.50;99.90
64634;DHT22;51043;52.406;9.690;2022-09-16T07:51:26;17.80;99.90
64634;DHT22;51043;52.406;9.690;2022-09-16T07:53:59;18.00;99.90
64634;DHT22;51043;52.406;9.690;2022-09-16T07:56:28;18.70;99.90
64634;DHT22;51043;52.406;9.690;2022-09-16T07:58:56;19.70;99.90
64634;DHT22;51043;52.406;9.690;2022-09-16T08:01:23;20.70;99.90
64634;DHT22;51043;52.406;9.690;2022-09-16T08:03:50;20.70;99.90
64634;DHT22;51043;52.406;9.690;2022-09-16T08:06:23;20.60;99.90
64634;DHT22;51043;52.406;9.690;2022-09-16T08:08:52;20.20;99.90
64634;DHT22;51043;52.406;9.690;2022-09-16T08:11:19;19.70;99.90
64634;DHT22;51043;52.406;9.690;2022-09-16T08:13:47;19.50;99.90
64634;DHT22;51043;52.406;9.690;2022-09-16T08:16:16;19.60;99.90
64634;DHT22;51043;52.406;9.690;2022-09-16T08:18:49;18.80;99.90
64634;DHT22;51043;52.406;9.690;2022-09-16T08:21:19;18.60;99.90
64634;DHT22;51043;52.406;9.690;2022-09-16T08:23:46;18.00;99.90
64634;DHT22;51043;52.406;9.690;2022-09-16T08:26:14;17.70;99.90
64634;DHT22;51043;52.406;9.690;2022-09-16T08:28:43;17.30;99.90
64634;DHT22;51043;52.406;9.690;2022-09-16T08:31:23;17.10;99.90
64634;DHT22;51043;52.406;9.690;2022-09-16T08:33:50;17.00;99.90
64634;DHT22;51043;52.406;9.690;2022-09-16T08:36:20;17.20;99.90
64634;DHT22;51043;52.406;9.690;2022-09-16T08:38:53;17.70;99.90
64634;DHT22;51043;52.406;9.690;2022-09-16T08:48:02;20.80;99.90
64634;DHT22;51043;52.406;9.690;2022-09-16T08:50:36;21.20;99.90
64634;DHT22;51043;52.406;9.690;2022-09-16T08:53:09;20.60;99.90
64634;DHT22;51043;52.406;9.690;2022-09-16T08:55:40;20.80;99.90
64634;DHT22;51043;52.406;9.690;2022-09-16T08:58:18;20.30;99.90
64634;DHT22;51043;52.406;9.690;2022-09-16T09:00:51;20.20;99.90
64634;DHT22;51043;52.406;9.690;2022-09-16T09:05:57;20.40;99.90
64634;DHT22;51043;52.406;9.690;2022-09-16T09:08:38;20.30;98.80
64634;DHT22;51043;52.406;9.690;2022-09-16T09:16:50;18.20;99.90
64634;DHT22;51043;52.406;9.690;2022-09-16T09:20:00;19.30;99.90
64634;DHT22;51043;52.406;9.690;2022-09-16T09:42:20;16.70;99.90
64634;DHT22;51043;52.406;9.690;2022-09-16T09:45:00;17.20;99.90
64634;DHT22;51043;52.406;9.690;2022-09-16T09:47:38;17.80;99.90
64634;DHT22;51043;52.406;9.690;2022-09-16T09:50:16;17.60;99.90
64634;DHT22;51043;52.406;9.690;2022-09-16T09:52:52;17.20;99.90
64634;DHT22;51043;52.406;9.690;2022-09-16T09:55:21;16.70;99.90
64634;DHT22;51043;52.406;9.690;2022-09-16T09:58:01;16.60;99.90
64634;DHT22;51043;52.406;9.690;2022-09-16T10:00:31;16.50;99.90
64634;DHT22;51043;52.406;9.690;2022-09-16T10:03:09;16.50;99.90
64634;DHT22;51043;52.406;9.690;2022-09-16T10:05:37;16.50;99.90
64634;DHT22;51043;52.406;9.690;2022-09-16T10:08:29;16.50;99.90
64634;DHT22;51043;52.406;9.690;2022-09-16T10:11:01;16.90;99.90
64634;DHT22;51043;52.406;9.690;2022-09-16T10:13:30;17.10;99.90
64634;DHT22;51043;52.406;9.690;2022-09-16T10:16:13;17.20;99.90
64634;DHT22;51043;52.406;9.690;2022-09-16T10:18:42;17.20;99.90
64634;DHT22;51043;52.406;9.690;2022-09-16T10:21:11;17.60;99.90
64634;DHT22;51043;52.406;9.690;2022-09-16T10:23:40;18.20;99.90
64634;DHT22;51043;52.406;9.690;2022-09-16T10:29:14;18.20;99.90
64634;DHT22;51043;52.406;9.690;2022-09-16T10:31:42;18.10;99.30
64634;DHT22;51043;52.406;9.690;2022-09-16T10:39:52;17.70;99.90
64634;DHT22;51043;52.406;9.690;2022-09-16T10:42:22;19.10;97.40
64634;DHT22;51043;52.406;9.690;2022-09-16T10:44:51;20.00;94.90
64634;DHT22;51043;52.406;9.690;2022-09-16T10:47:22;20.40;93.30
64634;DHT22;51043;52.406;9.690;2022-09-16T10:49:51;20.70;91.20
64634;DHT22;51043;52.406;9.690;2022-09-16T10:52:22;20.30;92.20
64634;DHT22;51043;52.406;9.690;2022-09-16T10:54:50;19.80;91.60
64634;DHT22;51043;52.406;9.690;2022-09-16T10:57:31;19.90;88.90
64634;DHT22;51043;52.406;9.690;2022-09-16T11:08:04;22.80;74.60
64634;DHT22;51043;52.406;9.690;2022-09-16T11:13:30;20.60;76.80
64634;DHT22;51043;52.406;9.690;2022-09-16T11:24:39;22.50;69.00
64634;DHT22;51043;52.406;9.690;2022-09-16T11:30:20;22.10;70.70
64634;DHT22;51043;52.406;9.690;2022-09-16T11:40:45;21.30;75.50
64634;DHT22;51043;52.406;9.690;2022-09-16T11:43:40;22.20;73.80
64634;DHT22;51043;52.406;9.690;2022-09-16T11:55:37;18.50;80.20
64634;DHT22;51043;52.406;9.690;2022-09-16T11:57:38;18.50;82.60
64634;DHT22;51043;52.406;9.690;2022-09-16T12:00:12;19.50;80.30
64634;DHT22;51043;52.406;9.690;2022-09-16T12:05:45;21.50;78.40
64634;DHT22;51043;52.406;9.690;2022-09-16T12:08:24;21.50;75.10
64634;DHT22;51043;52.406;9.690;2022-09-16T12:16:01;22.20;73.80
64634;DHT22;51043;52.406;9.690;2022-09-16T12:18:43;21.60;72.90
64634;DHT22;51043;52.406;9.690;2022-09-16T12:21:18;20.30;76.70
64634;DHT22;51043;52.406;9.690;2022-09-16T12:24:12;20.10;78.10
64634;DHT22;51043;52.406;9.690;2022-09-16T12:26:51;19.30;79.10
64634;DHT22;51043;52.406;9.690;2022-09-16T12:29:43;18.40;83.20
64634;DHT22;51043;52.406;9.690;2022-09-16T12:32:17;18.00;85.40
64634;DHT22;51043;52.406;9.690;2022-09-16T12:34:58;17.90;85.80
64634;DHT22;51043;52.406;9.690;2022-09-16T12:37:47;17.90;87.00
64634;DHT22;51043;52.406;9.690;2022-09-16T12:40:19;17.60;85.00
64634;DHT22;51043;52.406;9.690;2022-09-16T12:53:45;16.60;84.80
64634;DHT22;51043;52.406;9.690;2022-09-16T12:56:32;16.60;85.10
64634;DHT22;51043;52.406;9.690;2022-09-16T12:59:30;16.50;85.30
64634;DHT22;51043;52.406;9.690;2022-09-16T13:02:09;16.30;85.90
64634;DHT22;51043;52.406;9.690;2022-09-16T13:04:44;16.50;86.60
64634;DHT22;51043;52.406;9.690;2022-09-16T13:07:35;16.60;87.50
64634;DHT22;51043;52.406;9.690;2022-09-16T13:10:06;16.60;88.30
64634;DHT22;51043;52.406;9.690;2022-09-16T13:12:35;16.60;88.20
64634;DHT22;51043;52.406;9.690;2022-09-16T13:15:07;16.40;88.80
64634;DHT22;51043;52.406;9.690;2022-09-16T13:17:37;16.40;89.00
64634;DHT22;51043;52.406;9.690;2022-09-16T13:20:14;16.40;89.10
64634;DHT22;51043;52.406;9.690;2022-09-16T13:22:48;16.60;90.10
64634;DHT22;51043;52.406;9.690;2022-09-16T13:25:25;16.90;88.90
64634;DHT22;51043;52.406;9.690;2022-09-16T13:27:58;17.20;88.20
64634;DHT22;51043;52.406;9.690;2022-09-16T13:32:59;17.70;81.30
64634;DHT22;51043;52.406;9.690;2022-09-16T13:35:41;17.70;79.60
64634;DHT22;51043;52.406;9.690;2022-09-16T13:38:20;17.40;78.80
64634;DHT22;51043;52.406;9.690;2022-09-16T13:40:57;17.20;80.40
64634;DHT22;51043;52.406;9.690;2022-09-16T13:43:37;17.20;83.40
64634;DHT22;51043;52.406;9.690;2022-09-16T13:46:27;17.20;84.90
64634;DHT22;51043;52.406;9.690;2022-09-16T13:49:08;17.10;86.30
64634;DHT22;51043;52.406;9.690;2022-09-16T13:51:40;17.20;88.30
64634;DHT22;51043;52.406;9.690;2022-09-16T13:54:31;17.40;87.90
64634;DHT22;51043;52.406;9.690;2022-09-16T14:08:08;16.40;91.40
64634;DHT22;51043;52.406;9.690;2022-09-16T14:10:48;16.00;93.00
64634;DHT22;51043;52.406;9.690;2022-09-16T14:13:19;16.00;92.90
64634;DHT22;51043;52.406;9.690;2022-09-16T14:15:49;15.90;92.60
64634;DHT22;51043;52.406;9.690;2022-09-16T14:18:20;15.90;93.60
64634;DHT22;51043;52.406;9.690;2022-09-16T14:20:59;16.00;93.60
64634;DHT22;51043;52.406;9.690;2022-09-16T14:23:27;16.10;92.80
64634;DHT22;51043;52.406;9.690;2022-09-16T14:25:54;16.20;92.60
64634;DHT22;51043;52.406;9.690;2022-09-16T14:28:22;16.30;92.90
64634;DHT22;51043;52.406;9.690;2022-09-16T14:30:59;16.40;92.70
64634;DHT22;51043;52.406;9.690;2022-09-16T14:33:32;16.50;92.60
64634;DHT22;51043;52.406;9.690;2022-09-16T14:36:06;16.50;92.50
64634;DHT22;51043;52.406;9.690;2022-09-16T14:38:42;16.50;93.20
64634;DHT22;51043;52.406;9.690;2022-09-16T14:41:18;16.40;94.00
64634;DHT22;51043;52.406;9.690;2022-09-16T14:43:48;16.30;94.50
64634;DHT22;51043;52.406;9.690;2022-09-16T14:46:15;16.30;94.90
64634;DHT22;51043;52.406;9.690;2022-09-16T14:48:43;16.40;95.20
64634;DHT22;51043;52.406;9.690;2022-09-16T14:51:20;16.30;95.50
64634;DHT22;51043;52.406;9.690;2022-09-16T14:53:58;16.20;95.80
64634;DHT22;51043;52.406;9.690;2022-09-16T14:56:41;16.00;96.00
64634;DHT22;51043;52.406;9.690;2022-09-16T14:59:12;16.00;96.20
64634;DHT22;51043;52.406;9.690;2022-09-16T15:01:41;16.00;96.10
64634;DHT22;51043;52.406;9.690;2022-09-16T15:04:20;16.10;96.10
64634;DHT22;51043;52.406;9.690;2022-09-16T15:06:53;16.00;95.40
64634;DHT22;51043;52.406;9.690;2022-09-16T15:09:33;15.90;95.90
64634;DHT22;51043;52.406;9.690;2022-09-16T15:12:03;15.90;96.20
64634;DHT22;51043;52.406;9.690;2022-09-16T15:14:31;16.00;96.00
64634;DHT22;51043;52.406;9.690;2022-09-16T15:17:01;16.10;96.20
64634;DHT22;51043;52.406;9.690;2022-09-16T15:19:39;16.20;96.70
64634;DHT22;51043;52.406;9.690;2022-09-16T15:22:07;16.30;96.70
64634;DHT22;51043;52.406;9.690;2022-09-16T15:24:39;16.40;96.70
64634;DHT22;51043;52.406;9.690;2022-09-16T15:27:07;16.50;96.90
64634;DHT22;51043;52.406;9.690;2022-09-16T15:29:46;16.60;96.40
64634;DHT22;51043;52.406;9.690;2022-09-16T15:32:28;16.40;96.10
64634;DHT22;51043;52.406;9.690;2022-09-16T15:37:37;16.30;96.70
64634;DHT22;51043;52.406;9.690;2022-09-16T15:40:20;16.20;96.80
64634;DHT22;51043;52.406;9.690;2022-09-16T15:42:48;16.10;96.30
64634;DHT22;51043;52.406;9.690;2022-09-16T15:45:26;16.00;96.30
64634;DHT22;51043;52.406;9.690;2022-09-16T15:47:59;16.00;96.40
64634;DHT22;51043;52.406;9.690;2022-09-16T15:50:29;15.90;96.30
64634;DHT22;51043;52.406;9.690;2022-09-16T15:53:11;15.80;96.30
64634;DHT22;51043;52.406;9.690;2022-09-16T15:56:39;15.70;96.60
64634;DHT22;51043;52.406;9.690;2022-09-16T15:58:45;15.50;96.70
64634;DHT22;51043;52.406;9.690;2022-09-16T16:01:35;15.40;97.30
64634;DHT22;51043;52.406;9.690;2022-09-16T16:04:05;15.40;97.40
64634;DHT22;51043;52.406;9.690;2022-09-16T16:06:50;15.40;97.70
64634;DHT22;51043;52.406;9.690;2022-09-16T16:09:28;15.40;97.30
64634;DHT22;51043;52.406;9.690;2022-09-16T16:12:11;15.40;97.50
64634;DHT22;51043;52.406;9.690;2022-09-16T16:14:44;15.30;97.70
64634;DHT22;51043;52.406;9.690;2022-09-16T16:17:18;15.30;97.50
64634;DHT22;51043;52.406;9.690;2022-09-16T16:19:50;15.20;98.00
64634;DHT22;51043;52.406;9.690;2022-09-16T16:22:17;15.20;98.00
64634;DHT22;51043;52.406;9.690;2022-09-16T16:24:46;15.30;98.00
64634;DHT22;51043;52.406;9.690;2022-09-16T16:27:13;15.20;98.20
64634;DHT22;51043;52.406;9.690;2022-09-16T16:29:44;15.10;98.40
64634;DHT22;51043;52.406;9.690;2022-09-16T16:32:16;15.00;98.40
64634;DHT22;51043;52.406;9.690;2022-09-16T16:34:46;14.90;99.00
64634;DHT22;51043;52.406;9.690;2022-09-16T16:37:19;14.90;99.80
64634;DHT22;51043;52.406;9.690;2022-09-16T16:40:06;14.80;99.90
64634;DHT22;51043;52.406;9.690;2022-09-16T16:42:34;14.50;99.90
64634;DHT22;51043;52.406;9.690;2022-09-16T16:45:01;14.30;99.90
64634;DHT22;51043;52.406;9.690;2022-09-16T16:47:28;14.20;99.90
64634;DHT22;51043;52.406;9.690;2022-09-16T16:49:55;14.20;99.90
64634;DHT22;51043;52.406;9.690;2022-09-16T16:52:25;14.20;99.90
64634;DHT22;51043;52.406;9.690;2022-09-16T16:54:52;14.30;99.90
64634;DHT22;51043;52.406;9.690;2022-09-16T16:57:20;14.30;99.90
64634;DHT22;51043;52.406;9.690;2022-09-16T16:59:50;14.20;99.90
64634;DHT22;51043;52.406;9.690;2022-09-16T17:02:17;14.20;99.90
64634;DHT22;51043;52.406;9.690;2022-09-16T17:04:44;14.30;99.90
64634;DHT22;51043;52.406;9.690;2022-09-16T17:07:11;14.30;99.90
64634;DHT22;51043;52.406;9.690;2022-09-16T17:09:54;14.40;99.90
64634;DHT22;51043;52.406;9.690;2022-09-16T17:12:26;14.30;99.90
64634;DHT22;51043;52.406;9.690;2022-09-16T17:14:53;14.30;99.90
64634;DHT22;51043;52.406;9.690;2022-09-16T17:17:20;14.30;99.90
64634;DHT22;51043;52.406;9.690;2022-09-16T17:19:47;14.10;99.90
64634;DHT22;51043;52.406;9.690;2022-09-16T17:22:17;14.10;99.90
64634;DHT22;51043;52.406;9.690;2022-09-16T17:24:44;14.00;99.90
64634;DHT22;51043;52.406;9.690;2022-09-16T17:27:11;13.90;99.90
64634;DHT22;51043;52.406;9.690;2022-09-16T17:29:40;13.80;99.90
64634;DHT22;51043;52.406;9.690;2022-09-16T17:32:07;13.70;99.90
64634;DHT22;51043;52.406;9.690;2022-09-16T17:34:33;13.60;99.90
64634;DHT22;51043;52.406;9.690;2022-09-16T17:37:00;13.50;99.90
64634;DHT22;51043;52.406;9.690;2022-09-16T17:39:32;13.50;99.90
64634;DHT22;51043;52.406;9.690;2022-09-16T17:42:03;13.40;99.90
64634;DHT22;51043;52.406;9.690;2022-09-16T17:44:31;13.20;99.90
64634;DHT22;51043;52.406;9.690;2022-09-16T17:46:57;13.10;99.90
64634;DHT22;51043;52.406;9.690;2022-09-16T17:49:25;13.10;99.90
64634;DHT22;51043;52.406;9.690;2022-09-16T17:51:57;13.10;99.90
64634;DHT22;51043;52.406;9.690;2022-09-16T17:54:24;13.10;99.90
64634;DHT22;51043;52.406;9.690;2022-09-16T17:56:52;13.10;99.90
64634;DHT22;51043;52.406;9.690;2022-09-16T17:59:19;13.10;99.90
64634;DHT22;51043;52.406;9.690;2022-09-16T18:01:47;13.10;99.90
64634;DHT22;51043;52.406;9.690;2022-09-16T18:04:14;13.10;99.90
64634;DHT22;51043;52.406;9.690;2022-09-16T18:06:45;13.00;99.90
64634;DHT22;51043;52.406;9.690;2022-09-16T18:09:13;13.10;99.90
64634;DHT22;51043;52.406;9.690;2022-09-16T18:11:44;13.10;99.90
64634;DHT22;51043;52.406;9.690;2022-09-16T18:14:12;13.00;99.90
64634;DHT22;51043;52.406;9.690;2022-09-16T18:16:40;12.80;99.90
64634;DHT22;51043;52.406;9.690;2022-09-16T18:19:11;12.60;99.90
64634;DHT22;51043;52.406;9.690;2022-09-16T18:21:43;12.60;99.90
64634;DHT22;51043;52.406;9.690;2022-09-16T18:24:11;12.50;99.90
64634;DHT22;51043;52.406;9.690;2022-09-16T18:26:39;12.50;99.90
64634;DHT22;51043;52.406;9.690;2022-09-16T18:29:09;12.50;99.90
64634;DHT22;51043;52.406;9.690;2022-09-16T18:31:40;12.40;99.90
64634;DHT22;51043;52.406;9.690;2022-09-16T18:34:07;12.40;99.90
64634;DHT22;51043;52.406;9.690;2022-09-16T18:36:36;12.50;99.90
64634;DHT22;51043;52.406;9.690;2022-09-16T18:39:06;12.50;99.90
64634;DHT22;51043;52.406;9.690;2022-09-16T18:41:36;12.50;99.90
64634;DHT22;51043;52.406;9.690;2022-09-16T18:44:14;12.40;99.90